Time;durP1;ratioP1;P1;durP2;ratioP2;P2;SDS_P1;SDS_P2;PMS_P1;PMS_P2;Temp;Humidity;BMP_temperature;BMP_pressure;BME280_temperature;BME280_humidity;BME280_pressure;Samples;Min_cycle;Max_cycle;Signal;HPM_P1;HPM_P2
2022/06/28 00:01:11;;;;;;;7.95;1.98;;;;;;;12.96;55.57;100379.44;4991059;28;20101;-47
2022/06/28 00:03:38;;;;;;;11.05;2.20;;;;;;;12.94;55.28;100375.13;4984832;28;20046;-49
2022/06/28 00:06:04;;;;;;;5.13;1.98;;;;;;;12.91;55.08;100369.94;4985783;28;20096;-46
2022/06/28 00:08:31;;;;;;;6.80;1.75;;;;;;;12.88;55.27;100376.03;4987622;28;20670;-44
2022/06/28 00:10:58;;;;;;;5.45;2.15;;;;;;;12.85;54.97;100371.72;4991324;28;21113;-44
2022/06/28 00:13:25;;;;;;;3.38;1.95;;;;;;;12.81;55.09;100372.63;4990176;28;20047;-44
2022/06/28 00:16:07;;;;;;;7.95;2.53;;;;;;;12.77;55.38;100368.28;4991964;28;20414;-48
2022/06/28 00:18:36;;;;;;;4.45;1.80;;;;;;;12.73;55.30;100369.19;4991079;28;20051;-45
2022/06/28 00:21:06;;;;;;;3.80;2.30;;;;;;;12.69;55.65;100370.09;4986482;28;20557;-46
2022/06/28 00:23:34;;;;;;;3.22;1.58;;;;;;;12.67;54.87;100382.25;4997207;28;20495;-47
2022/06/28 00:26:01;;;;;;;6.28;1.92;;;;;;;12.62;54.75;100368.38;4982879;28;20052;-47
2022/06/28 00:28:28;;;;;;;5.75;2.10;;;;;;;12.57;55.83;100371.88;4985425;28;20050;-49
2022/06/28 00:30:55;;;;;;;4.00;1.55;;;;;;;12.56;55.97;100372.75;4982399;28;20749;-46
2022/06/28 00:33:21;;;;;;;3.35;1.27;;;;;;;12.56;56.19;100372.75;4992658;28;20050;-45
2022/06/28 00:35:48;;;;;;;3.85;1.95;;;;;;;12.55;56.48;100373.66;4993463;28;20050;-45
2022/06/28 00:38:16;;;;;;;5.72;1.83;;;;;;;12.51;55.50;100371.94;4991637;28;20839;-44
2022/06/28 00:40:52;;;;;;;6.25;2.15;;;;;;;12.45;55.96;100383.22;4991279;28;20050;-43
2022/06/28 00:43:22;;;;;;;3.50;1.98;;;;;;;12.47;55.77;100386.66;4999133;28;20116;-46
2022/06/28 00:45:49;;;;;;;7.28;2.22;;;;;;;12.45;55.92;100377.16;4995690;28;20105;-46
2022/06/28 00:48:17;;;;;;;6.72;1.85;;;;;;;12.42;55.91;100377.16;4984805;28;20052;-43
2022/06/28 00:50:44;;;;;;;2.33;1.55;;;;;;;12.38;55.66;100385.84;4994230;28;20069;-43
2022/06/28 00:53:14;;;;;;;10.27;2.22;;;;;;;12.36;55.98;100395.41;4984341;28;20050;-44
2022/06/28 00:55:41;;;;;;;3.75;2.10;;;;;;;12.33;56.98;100397.13;4995809;28;20049;-45
2022/06/28 00:58:09;;;;;;;6.50;2.00;;;;;;;12.31;55.80;100395.41;5000443;28;20045;-50
2022/06/28 01:00:41;;;;;;;5.45;2.00;;;;;;;12.28;55.72;100395.41;4985508;28;20054;-47
2022/06/28 01:03:11;;;;;;;4.93;1.88;;;;;;;12.26;56.89;100402.38;4989865;28;20404;-48
2022/06/28 01:05:41;;;;;;;5.90;2.65;;;;;;;12.23;56.16;100403.25;4981966;28;20069;-47
2022/06/28 01:08:08;;;;;;;5.90;2.50;;;;;;;12.19;57.02;100397.19;4995326;28;20050;-44
2022/06/28 01:10:36;;;;;;;4.45;1.00;;;;;;;12.14;56.17;100395.47;4999364;28;20446;-47
2022/06/28 01:13:03;;;;;;;4.57;2.15;;;;;;;12.12;57.16;100399.81;4996336;28;20085;-46
2022/06/28 01:15:31;;;;;;;7.93;2.17;;;;;;;12.11;56.54;100400.66;5001679;28;20058;-44
2022/06/28 01:18:00;;;;;;;11.05;2.45;;;;;;;12.10;56.84;100402.41;5000705;28;20038;-44
2022/06/28 01:20:27;;;;;;;3.10;1.60;;;;;;;12.07;57.04;100395.50;4999088;28;20061;-46
2022/06/28 01:22:54;;;;;;;6.25;2.08;;;;;;;12.06;57.08;100395.50;4998292;28;20054;-44
2022/06/28 01:25:22;;;;;;;6.95;1.63;;;;;;;12.05;57.39;100397.19;4989772;28;20056;-42
2022/06/28 01:27:51;;;;;;;3.95;1.30;;;;;;;12.04;56.85;100397.19;5001189;28;20104;-43
2022/06/28 01:30:18;;;;;;;5.18;1.75;;;;;;;12.02;56.67;100398.97;4992207;28;20046;-44
2022/06/28 01:32:45;;;;;;;5.28;1.58;;;;;;;11.99;56.92;100402.41;4995623;28;20111;-47
2022/06/28 01:35:12;;;;;;;5.05;2.03;;;;;;;11.98;56.78;100402.41;4991080;28;20789;-45
2022/06/28 01:37:39;;;;;;;7.75;2.17;;;;;;;11.95;56.89;100398.97;4992321;28;20060;-45
2022/06/28 01:40:07;;;;;;;6.75;2.13;;;;;;;11.94;57.88;100396.38;4978553;28;20093;-45
2022/06/28 01:42:34;;;;;;;5.32;0.80;;;;;;;11.91;57.85;100401.56;4988489;28;20485;-44
2022/06/28 01:45:03;;;;;;;6.10;1.55;;;;;;;11.91;57.91;100402.44;4988289;28;20047;-44
2022/06/28 01:47:35;;;;;;;2.47;1.65;;;;;;;11.88;57.56;100401.56;5003201;28;20045;-45
2022/06/28 01:50:02;;;;;;;4.90;1.92;;;;;;;11.85;57.24;100391.22;4988465;28;20050;-46
2022/06/28 01:52:29;;;;;;;3.83;1.73;;;;;;;11.82;57.45;100403.31;4996525;28;20042;-49
2022/06/28 01:54:56;;;;;;;4.75;1.98;;;;;;;11.77;58.38;100399.88;4993587;28;20051;-49
2022/06/28 01:57:23;;;;;;;5.15;1.70;;;;;;;11.75;57.66;100395.56;4996436;28;20039;-45
2022/06/28 01:59:50;;;;;;;5.57;1.75;;;;;;;11.72;58.27;100400.75;4994590;28;20494;-44
2022/06/28 02:02:17;;;;;;;3.33;1.73;;;;;;;11.70;57.57;100392.97;4990187;28;20081;-44
2022/06/28 02:04:44;;;;;;;6.68;1.98;;;;;;;11.68;57.74;100394.69;4992503;28;20515;-44
2022/06/28 02:07:12;;;;;;;4.00;1.75;;;;;;;11.65;58.57;100392.13;4992323;28;20096;-44
2022/06/28 02:09:39;;;;;;;5.97;1.90;;;;;;;11.64;58.71;100388.66;4990648;28;20058;-44
2022/06/28 02:12:05;;;;;;;6.25;1.50;;;;;;;11.63;58.77;100391.25;4993502;28;20046;-45
2022/06/28 02:14:32;;;;;;;5.40;1.83;;;;;;;11.62;57.84;100394.72;4990014;28;20050;-43
2022/06/28 02:16:59;;;;;;;3.60;1.90;;;;;;;11.61;58.11;100398.16;4985946;28;20097;-45
2022/06/28 02:19:26;;;;;;;4.40;1.52;;;;;;;11.59;58.78;100394.72;4996815;28;20045;-44
2022/06/28 02:21:53;;;;;;;3.67;2.30;;;;;;;11.57;58.12;100394.72;4991941;28;20042;-46
2022/06/28 02:24:20;;;;;;;7.72;1.98;;;;;;;11.55;57.98;100399.06;4985754;28;20050;-44
2022/06/28 02:26:46;;;;;;;4.22;2.28;;;;;;;11.54;58.85;100397.31;4985059;28;20108;-46
2022/06/28 02:29:13;;;;;;;3.63;1.80;;;;;;;11.52;58.01;100394.72;4986203;28;20050;-43
2022/06/28 02:31:39;;;;;;;4.75;1.88;;;;;;;11.49;58.55;100384.38;4987677;28;20046;-43
2022/06/28 02:34:07;;;;;;;5.20;2.17;;;;;;;11.47;58.53;100391.25;4988902;28;20528;-45
2022/06/28 02:42:07;;;;;;;7.00;2.85;;;;;;;11.41;59.75;100386.06;4995823;28;20046;-46
2022/06/28 02:44:33;;;;;;;5.47;1.50;;;;;;;11.38;59.16;100386.94;4991191;28;20080;-45
2022/06/28 02:47:00;;;;;;;6.20;2.30;;;;;;;11.39;59.13;100377.44;4997077;28;20049;-44
2022/06/28 02:49:26;;;;;;;4.97;1.98;;;;;;;11.37;58.56;100384.34;4994243;28;20050;-47
2022/06/28 02:51:53;;;;;;;6.25;2.05;;;;;;;11.37;58.77;100386.94;4989036;28;20054;-46
2022/06/28 02:54:19;;;;;;;8.10;2.20;;;;;;;11.32;59.19;100387.81;4987089;28;20592;-48
2022/06/28 02:56:46;;;;;;;10.15;2.25;;;;;;;11.30;58.91;100381.78;4986552;28;20050;-45
2022/06/28 02:59:13;;;;;;;7.28;1.70;;;;;;;11.29;59.59;100387.81;5001161;28;20042;-46
2022/06/28 03:01:39;;;;;;;4.03;0.60;;;;;;;11.25;58.61;100378.31;4992293;28;20593;-48
2022/06/28 03:04:06;;;;;;;6.65;2.15;;;;;;;11.23;58.73;100380.03;4988445;28;20167;-46
2022/06/28 03:06:33;;;;;;;3.03;1.33;;;;;;;11.21;59.34;100381.75;4988470;28;20050;-44
2022/06/28 03:09:00;;;;;;;5.03;1.83;;;;;;;11.18;59.24;100374.00;4991325;28;20080;-44
2022/06/28 03:11:26;;;;;;;5.28;1.58;;;;;;;11.13;59.46;100366.22;4991182;28;20103;-47
2022/06/28 03:13:53;;;;;;;3.97;1.77;;;;;;;11.11;60.05;100364.50;4985661;28;20057;-47
2022/06/28 03:16:19;;;;;;;3.58;1.73;;;;;;;11.09;59.24;100368.81;4987200;28;20054;-47
2022/06/28 03:18:46;;;;;;;8.07;1.90;;;;;;;11.06;59.80;100359.31;4991858;28;20137;-46
2022/06/28 03:21:13;;;;;;;4.82;1.83;;;;;;;11.01;60.03;100356.69;4989155;28;20049;-44
2022/06/28 03:23:39;;;;;;;2.95;1.55;;;;;;;10.96;60.86;100358.44;4982472;28;20054;-44
2022/06/28 03:26:06;;;;;;;4.78;1.95;;;;;;;10.93;60.92;100348.06;4985180;28;20050;-45
2022/06/28 03:28:33;;;;;;;4.82;1.73;;;;;;;10.90;60.65;100354.09;4992014;28;20049;-45
2022/06/28 03:30:59;;;;;;;5.45;1.88;;;;;;;10.87;61.22;100348.91;4986145;28;20054;-46
2022/06/28 03:33:26;;;;;;;5.13;2.08;;;;;;;10.87;61.25;100353.22;4984178;28;21013;-45
2022/06/28 03:35:53;;;;;;;4.47;2.00;;;;;;;10.86;60.98;100356.69;4983261;28;20057;-49
2022/06/28 03:38:19;;;;;;;5.28;1.83;;;;;;;10.87;60.72;100348.91;4994682;28;20050;-43
2022/06/28 03:40:46;;;;;;;3.30;1.02;;;;;;;10.88;60.54;100350.63;4991101;28;20438;-48
2022/06/28 03:43:13;;;;;;;5.57;1.90;;;;;;;10.92;60.76;100348.94;4997972;28;20054;-46
2022/06/28 03:45:39;;;;;;;2.45;1.55;;;;;;;10.95;60.97;100351.53;4993518;28;20054;-44
2022/06/28 03:48:06;;;;;;;8.68;2.50;;;;;;;10.96;61.15;100344.59;4995363;28;20046;-43
2022/06/28 03:50:33;;;;;;;4.47;1.80;;;;;;;10.98;61.55;100351.50;4992407;28;20046;-44
2022/06/28 03:52:59;;;;;;;5.45;2.28;;;;;;;10.99;61.49;100352.38;4994274;28;20050;-45
2022/06/28 03:55:26;;;;;;;6.22;1.92;;;;;;;11.00;61.19;100351.50;4992125;28;20066;-44
2022/06/28 03:57:52;;;;;;;6.30;1.55;;;;;;;11.00;61.48;100342.03;4995597;28;20537;-45
2022/06/28 04:00:19;;;;;;;6.07;2.08;;;;;;;11.03;61.11;100354.09;4994496;28;20058;-44
2022/06/28 04:02:46;;;;;;;4.80;0.50;;;;;;;11.04;61.14;100356.72;4989025;28;20368;-46
2022/06/28 04:05:12;;;;;;;4.35;2.05;;;;;;;11.06;61.68;100354.13;4981896;28;20042;-44
2022/06/28 04:07:42;;;;;;;3.70;1.83;;;;;;;11.08;61.37;100356.72;4989906;28;20138;-46
2022/06/28 04:10:09;;;;;;;4.43;2.25;;;;;;;11.08;61.86;100362.75;4988951;28;20098;-44
2022/06/28 04:12:35;;;;;;;6.60;1.95;;;;;;;11.10;61.66;100362.75;4991332;28;20144;-46
2022/06/28 04:15:03;;;;;;;4.50;1.85;;;;;;;11.12;61.56;100366.22;4985453;28;20050;-49
2022/06/28 04:17:30;;;;;;;4.35;1.92;;;;;;;11.15;61.94;100366.22;4989218;28;20051;-48
2022/06/28 04:19:56;;;;;;;3.80;1.58;;;;;;;11.17;61.62;100372.25;4987269;28;20490;-45
2022/06/28 04:22:23;;;;;;;4.65;1.95;;;;;;;11.13;61.88;100365.34;4986274;28;20108;-46
2022/06/28 04:24:49;;;;;;;5.63;1.83;;;;;;;11.14;61.54;100356.69;4985928;28;20050;-46
2022/06/28 04:27:16;;;;;;;4.80;1.85;;;;;;;11.12;62.56;100355.84;4993583;28;20050;-47
2022/06/28 04:29:43;;;;;;;5.45;1.73;;;;;;;11.10;62.22;100358.44;4991622;28;20527;-44
2022/06/28 04:32:09;;;;;;;6.97;2.08;;;;;;;11.10;62.78;100360.16;4981570;28;20101;-46
2022/06/28 04:34:36;;;;;;;5.82;2.17;;;;;;;11.06;62.87;100354.13;4993040;28;20046;-45
2022/06/28 04:37:03;;;;;;;3.33;1.90;;;;;;;11.04;62.59;100350.66;5004848;28;20069;-45
2022/06/28 04:39:29;;;;;;;6.50;2.08;;;;;;;11.02;62.47;100353.22;5007767;28;20112;-46
2022/06/28 04:41:56;;;;;;;4.28;1.77;;;;;;;11.00;62.60;100343.75;5005885;28;20054;-45
2022/06/28 04:44:23;;;;;;;6.65;2.10;;;;;;;11.01;63.56;100335.13;5009043;28;20049;-47
2022/06/28 04:46:49;;;;;;;6.63;2.00;;;;;;;11.02;63.07;100335.09;5007573;28;20568;-45
2022/06/28 04:49:16;;;;;;;6.80;2.33;;;;;;;11.08;63.46;100333.38;5017549;28;20046;-46
2022/06/28 04:51:43;;;;;;;4.43;2.05;;;;;;;11.14;63.89;100338.53;5017249;28;20049;-44
2022/06/28 04:54:09;;;;;;;3.03;0.60;;;;;;;11.26;64.07;100330.78;5014032;28;20449;-46
2022/06/28 04:56:36;;;;;;;4.57;2.05;;;;;;;11.38;63.83;100329.03;5019224;28;20103;-46
2022/06/28 04:59:03;;;;;;;8.10;2.42;;;;;;;11.49;63.89;100337.66;5016637;28;20049;-47
2022/06/28 05:01:29;;;;;;;4.97;1.30;;;;;;;11.59;64.21;100337.63;5010620;28;20406;-44
2022/06/28 05:03:56;;;;;;;7.13;1.92;;;;;;;11.63;63.26;100328.97;5009137;28;20051;-44
2022/06/28 05:06:23;;;;;;;2.75;2.17;;;;;;;11.66;64.59;100328.97;5012500;28;20058;-44
2022/06/28 05:08:53;;;;;;;13.35;2.58;;;;;;;11.68;63.70;100322.03;5009683;28;20056;-46
2022/06/28 05:11:38;;;;;;;3.75;1.70;;;;;;;11.67;64.92;100320.31;5009804;28;20062;-46
2022/06/28 05:14:06;;;;;;;5.38;1.80;;;;;;;11.70;63.68;100325.50;5010316;28;20057;-45
2022/06/28 05:16:33;;;;;;;3.80;2.22;;;;;;;11.72;63.81;100323.75;5008525;28;20050;-47
2022/06/28 05:18:59;;;;;;;8.27;0.90;;;;;;;11.75;64.20;100318.56;5016059;28;20421;-48
2022/06/28 05:21:26;;;;;;;9.52;3.35;;;;;;;11.83;64.17;100316.78;5015646;28;20058;-45
2022/06/28 05:23:53;;;;;;;7.03;2.42;;;;;;;11.88;64.40;100308.13;5004745;28;20140;-47
2022/06/28 05:26:19;;;;;;;3.70;2.05;;;;;;;11.95;64.37;100309.84;5015309;28;20097;-44
2022/06/28 05:28:46;;;;;;;9.05;2.40;;;;;;;12.07;65.52;100309.84;5015999;28;20042;-44
2022/06/28 05:31:13;;;;;;;4.32;1.92;;;;;;;12.18;65.23;100308.91;5012630;28;20042;-45
2022/06/28 05:33:39;;;;;;;6.40;1.95;;;;;;;12.28;65.52;100315.78;5013558;28;20048;-42
2022/06/28 05:36:06;;;;;;;10.77;2.30;;;;;;;12.44;65.06;100313.09;5013527;28;20111;-47
2022/06/28 05:38:32;;;;;;;4.57;1.95;;;;;;;12.62;65.64;100311.22;5012254;28;20482;-43
2022/06/28 05:40:59;;;;;;;7.55;1.83;;;;;;;12.70;65.58;100296.47;5015383;28;20498;-45
2022/06/28 05:43:26;;;;;;;9.40;2.15;;;;;;;12.79;64.03;100298.09;5015401;28;20054;-46
2022/06/28 05:45:53;;;;;;;5.28;2.22;;;;;;;12.90;65.04;100295.44;5011064;28;20116;-43
2022/06/28 05:48:20;;;;;;;6.32;2.63;;;;;;;13.01;64.75;100293.63;5008822;28;20058;-45
2022/06/28 05:50:47;;;;;;;5.18;2.40;;;;;;;13.13;64.36;100304.78;5018561;28;20037;-46
2022/06/28 05:53:14;;;;;;;4.00;1.85;;;;;;;13.22;64.42;100296.88;5012500;28;20137;-44
2022/06/28 05:55:42;;;;;;;3.67;1.90;;;;;;;13.33;64.35;100295.03;5011087;28;20392;-44
2022/06/28 05:58:08;;;;;;;4.65;1.98;;;;;;;13.45;64.33;100288.81;5014239;28;20057;-46
2022/06/28 06:00:37;;;;;;;4.43;2.85;;;;;;;13.59;64.20;100286.13;5009590;28;20061;-45
2022/06/28 06:03:04;;;;;;;3.88;2.78;;;;;;;13.73;65.02;100292.91;5014478;28;20063;-45
2022/06/28 06:05:31;;;;;;;10.25;2.05;;;;;;;13.86;64.34;100296.22;4999070;28;20058;-45
2022/06/28 06:07:58;;;;;;;6.90;1.92;;;;;;;13.93;64.99;100297.00;4992533;28;20050;-45
2022/06/28 06:10:24;;;;;;;5.05;1.88;;;;;;;14.05;64.29;100289.00;5014937;28;20045;-44
2022/06/28 06:12:51;;;;;;;7.35;2.85;;;;;;;14.18;64.00;100294.94;5014990;28;20045;-44
2022/06/28 06:15:17;;;;;;;5.82;2.08;;;;;;;14.34;64.18;100292.09;5010683;28;20057;-45
2022/06/28 06:17:44;;;;;;;9.48;2.55;;;;;;;14.54;64.61;100297.03;5016096;28;20049;-44
2022/06/28 06:20:11;;;;;;;6.90;2.40;;;;;;;14.74;64.50;100298.47;5017379;28;20049;-48
2022/06/28 06:22:37;;;;;;;7.35;2.38;;;;;;;14.84;63.90;100297.47;5014415;28;20068;-47
2022/06/28 06:25:05;;;;;;;5.60;0.70;;;;;;;14.89;63.46;100293.03;5010023;28;20687;-47
2022/06/28 06:27:36;;;;;;;6.10;2.00;;;;;;;14.95;63.78;100302.50;5020283;28;20046;-44
2022/06/28 06:30:04;;;;;;;7.95;2.05;;;;;;;15.16;64.12;100298.66;5016330;28;20053;-49
2022/06/28 06:32:30;;;;;;;6.00;2.20;;;;;;;15.46;63.54;100286.81;5019083;28;20535;-49
2022/06/28 06:34:57;;;;;;;5.75;1.05;;;;;;;15.73;63.49;100300.19;5010511;28;20421;-45
2022/06/28 06:37:24;;;;;;;6.20;1.90;;;;;;;15.88;62.89;100302.50;5005215;28;20050;-48
2022/06/28 06:39:50;;;;;;;7.07;2.35;;;;;;;16.14;63.09;100301.13;4998333;28;20050;-46
2022/06/28 06:42:17;;;;;;;6.95;1.95;;;;;;;16.34;62.38;100307.66;5008743;28;20505;-45
2022/06/28 06:44:44;;;;;;;6.13;2.45;;;;;;;16.48;62.31;100298.66;5018030;28;20042;-46
2022/06/28 06:47:10;;;;;;;5.32;2.25;;;;;;;16.65;62.16;100300.88;5002112;28;20501;-48
2022/06/28 06:49:37;;;;;;;7.38;2.00;;;;;;;16.79;61.23;100297.91;5003580;28;20077;-45
2022/06/28 06:52:04;;;;;;;8.40;2.20;;;;;;;16.92;61.49;100304.53;5006261;28;20100;-46
2022/06/28 06:54:31;;;;;;;6.75;2.72;;;;;;;17.07;61.36;100298.13;5005452;28;20062;-46
2022/06/28 06:56:58;;;;;;;6.25;2.28;;;;;;;17.31;61.62;100310.56;5002164;28;20049;-46
2022/06/28 06:59:24;;;;;;;9.02;1.98;;;;;;;17.50;60.51;100297.00;5004893;28;20095;-48
2022/06/28 07:01:51;;;;;;;10.80;2.20;;;;;;;17.69;60.05;100308.66;5010624;28;20062;-45
2022/06/28 07:04:18;;;;;;;5.40;2.17;;;;;;;17.81;59.50;100304.84;5010531;28;20049;-49
2022/06/28 07:06:44;;;;;;;7.30;1.90;;;;;;;17.89;59.37;100307.22;5005064;28;20053;-49
2022/06/28 07:09:11;;;;;;;3.38;0.75;;;;;;;17.99;58.75;100300.81;5005440;28;20921;-47
2022/06/28 07:11:38;;;;;;;11.93;2.70;;;;;;;18.11;58.91;100311.88;5009444;28;20190;-46
2022/06/28 07:14:05;;;;;;;7.13;2.35;;;;;;;18.16;58.51;100307.34;5003459;28;20050;-48
2022/06/28 07:16:32;;;;;;;4.95;2.17;;;;;;;18.26;57.54;100304.44;5005681;28;20041;-47
2022/06/28 07:18:59;;;;;;;10.48;1.92;;;;;;;18.21;57.60;100308.06;5008757;28;20516;-47
2022/06/28 07:21:27;;;;;;;5.88;2.05;;;;;;;18.21;57.23;100312.47;5007332;28;20048;-48
2022/06/28 07:23:54;;;;;;;6.90;1.98;;;;;;;18.33;57.41;100316.47;5011558;28;20048;-50
2022/06/28 07:26:21;;;;;;;7.97;2.30;;;;;;;18.48;57.58;100321.22;5001924;28;20054;-46
2022/06/28 07:28:48;;;;;;;8.35;2.22;;;;;;;18.57;57.04;100319.22;5003699;28;20053;-48
2022/06/28 07:31:15;;;;;;;6.70;2.15;;;;;;;18.83;57.26;100317.50;5005161;28;20422;-46
2022/06/28 07:33:43;;;;;;;8.55;1.88;;;;;;;19.08;56.55;100306.25;5005875;28;20095;-46
2022/06/28 07:36:09;;;;;;;7.57;2.13;;;;;;;19.20;55.53;100308.44;5006839;28;20081;-49
2022/06/28 07:38:36;;;;;;;5.55;2.22;;;;;;;19.40;55.42;100306.88;4999819;28;20058;-46
2022/06/28 07:41:03;;;;;;;6.53;1.92;;;;;;;19.69;56.16;100304.94;5004867;28;20414;-49
2022/06/28 07:43:29;;;;;;;6.60;2.10;;;;;;;20.01;55.31;100308.19;5003188;28;20485;-46
2022/06/28 07:45:56;;;;;;;7.45;1.88;;;;;;;20.06;53.46;100288.75;5012303;28;20058;-46
2022/06/28 07:48:22;;;;;;;6.72;1.85;;;;;;;19.91;52.77;100283.13;5010452;28;20073;-47
2022/06/28 07:53:36;;;;;;;6.07;2.53;;;;;;;20.10;53.35;100292.97;5004171;28;20058;-47
2022/06/28 07:56:03;;;;;;;4.05;1.70;;;;;;;20.34;53.49;100300.81;5009148;28;20477;-49
2022/06/28 07:58:29;;;;;;;7.05;1.85;;;;;;;20.57;52.83;100291.16;5020133;28;20056;-47
2022/06/28 08:00:56;;;;;;;4.70;1.73;;;;;;;20.75;52.35;100282.50;5004180;28;20697;-49
2022/06/28 08:03:23;;;;;;;6.25;2.15;;;;;;;20.93;51.59;100278.25;5015853;28;20049;-49
2022/06/28 08:05:49;;;;;;;4.82;1.77;;;;;;;21.08;51.29;100280.28;5004659;28;20057;-47
2022/06/28 08:08:16;;;;;;;3.75;1.60;;;;;;;21.25;51.00;100271.66;5017975;28;20049;-47
2022/06/28 08:10:43;;;;;;;10.52;2.55;;;;;;;21.29;49.96;100274.09;5004753;28;20053;-48
2022/06/28 08:13:12;;;;;;;6.95;2.10;;;;;;;21.34;49.82;100275.69;5005831;28;20047;-50
2022/06/28 08:15:44;;;;;;;6.72;2.60;;;;;;;21.42;50.08;100274.38;5010943;28;20124;-49
2022/06/28 08:18:13;;;;;;;4.00;2.03;;;;;;;21.65;50.83;100282.19;5010295;28;20042;-49
2022/06/28 08:20:40;;;;;;;4.85;1.33;;;;;;;21.98;51.16;100276.31;5016043;28;20041;-49
2022/06/28 08:23:07;;;;;;;5.10;1.92;;;;;;;22.22;49.53;100278.69;5006781;28;20112;-47
2022/06/28 08:25:34;;;;;;;5.28;2.65;;;;;;;22.34;48.55;100272.84;5010637;28;20050;-51
2022/06/28 08:28:01;;;;;;;6.18;2.42;;;;;;;22.39;46.86;100259.41;5013981;28;20045;-50
2022/06/28 08:30:27;;;;;;;7.57;2.00;;;;;;;22.40;47.38;100276.97;5009838;28;20100;-48
2022/06/28 08:32:55;;;;;;;9.38;2.00;;;;;;;22.34;46.75;100283.41;5025047;28;20050;-45
2022/06/28 08:35:22;;;;;;;4.72;2.88;;;;;;;22.26;47.17;100274.97;5015026;28;20078;-46
2022/06/28 08:37:49;;;;;;;6.20;2.13;;;;;;;22.19;47.50;100273.59;5015186;28;20049;-47
2022/06/28 08:40:21;;;;;;;8.43;1.95;;;;;;;22.19;47.02;100273.59;5003472;28;20528;-45
2022/06/28 08:42:53;;;;;;;4.80;1.88;;;;;;;22.04;47.05;100270.75;4990591;28;20058;-47
2022/06/28 08:45:21;;;;;;;8.32;2.45;;;;;;;21.91;46.72;100269.59;4998990;28;20122;-46
2022/06/28 08:47:51;;;;;;;3.25;1.88;;;;;;;21.90;46.46;100262.63;4990758;28;20050;-49
2022/06/28 08:50:34;;;;;;;7.20;2.15;;;;;;;21.79;45.37;100266.63;5001156;28;20048;-45
2022/06/28 08:53:04;;;;;;;3.88;2.03;;;;;;;21.81;46.55;100259.50;4987867;28;20041;-46
2022/06/28 08:55:32;;;;;;;5.45;2.40;;;;;;;21.92;46.54;100260.78;4998035;28;20050;-45
2022/06/28 08:58:00;;;;;;;4.20;1.48;;;;;;;22.00;45.91;100258.66;4990292;28;20057;-46
2022/06/28 09:00:27;;;;;;;5.00;2.25;;;;;;;22.26;46.30;100261.78;4996119;28;20104;-46
2022/06/28 09:02:54;;;;;;;5.93;1.52;;;;;;;22.46;45.42;100244.16;4992064;28;20050;-51
2022/06/28 09:05:23;;;;;;;5.93;2.55;;;;;;;22.49;45.53;100251.91;4986599;28;20046;-48
2022/06/28 09:07:51;;;;;;;5.35;1.58;;;;;;;22.52;44.78;100246.47;4989706;28;20058;-51
2022/06/28 09:10:18;;;;;;;5.07;1.52;;;;;;;22.74;44.66;100248.06;4995963;28;20125;-50
2022/06/28 09:13:09;;;;;;;4.93;1.67;;;;;;;22.72;44.48;100256.06;4994126;28;20100;-51
2022/06/28 09:18:46;;;;;;;4.88;1.05;;;;;;;22.93;44.74;100241.84;5035638;27;20409;-46
2022/06/28 09:21:17;;;;;;;4.00;0.80;;;;;;;23.06;44.51;100231.47;5046304;28;20481;-49
2022/06/28 09:23:48;;;;;;;2.40;0.68;;;;;;;23.15;43.95;100230.16;5059152;28;20064;-46
2022/06/28 09:26:18;;;;;;;4.65;0.55;;;;;;;23.25;43.97;100236.66;5060631;28;20060;-48
2022/06/28 09:28:48;;;;;;;3.60;0.82;;;;;;;23.09;42.60;100231.31;5061973;28;20401;-46
2022/06/28 09:31:18;;;;;;;5.63;1.02;;;;;;;22.84;42.23;100233.44;5060667;28;20052;-49
2022/06/28 09:36:35;;;;;;;4.30;1.05;;;;;;;22.92;40.68;100224.28;5023831;27;20402;-44
2022/06/28 09:39:18;;;;;;;5.78;2.63;;;;;;;22.70;42.24;100220.13;5016166;28;20050;-47
2022/06/28 09:41:48;;;;;;;2.75;1.83;;;;;;;22.80;42.11;100213.41;5025328;28;20049;-49
2022/06/28 09:44:34;;;;;;;5.35;1.92;;;;;;;23.04;42.92;100213.09;5022056;28;20074;-46
2022/06/28 09:47:01;;;;;;;4.85;2.25;;;;;;;23.17;41.79;100204.53;5015619;28;20058;-45
2022/06/28 09:49:29;;;;;;;4.70;1.58;;;;;;;23.16;40.92;100202.78;5019762;28;20046;-47
2022/06/28 09:51:58;;;;;;;5.97;1.08;;;;;;;23.13;42.25;100221.47;5015315;28;20428;-46
2022/06/28 09:54:27;;;;;;;4.65;1.77;;;;;;;23.08;41.47;100219.06;5019159;28;20060;-53
2022/06/28 09:56:56;;;;;;;5.47;1.98;;;;;;;23.22;42.22;100216.56;5015262;28;20054;-49
2022/06/28 09:59:27;;;;;;;3.60;1.73;;;;;;;23.45;40.97;100216.28;4998192;28;20050;-49
2022/06/28 10:01:55;;;;;;;3.65;2.13;;;;;;;23.50;41.14;100211.56;5018398;28;20053;-49
2022/06/28 10:04:23;;;;;;;3.47;1.23;;;;;;;23.60;40.77;100201.34;5014754;28;20111;-47
2022/06/28 10:06:50;;;;;;;4.97;2.13;;;;;;;23.64;40.90;100194.13;5020290;28;20057;-46
2022/06/28 10:09:18;;;;;;;2.70;1.73;;;;;;;23.61;40.94;100201.28;5020392;28;21071;-46
2022/06/28 10:20:24;;;;;;;2.83;0.90;;;;;;;23.82;40.13;100190.44;5105787;27;20927;-45
2022/06/28 10:22:51;;;;;;;5.57;0.80;;;;;;;23.82;40.19;100182.53;5040542;28;20053;-46
2022/06/28 10:25:24;;;;;;;1.77;0.82;;;;;;;23.75;39.64;100191.72;5037681;28;20114;-45
2022/06/28 10:27:52;;;;;;;3.25;1.23;;;;;;;23.61;40.50;100185.41;5034653;28;20049;-45
2022/06/28 10:30:25;;;;;;;1.85;0.50;;;;;;;23.57;40.90;100178.59;5037406;28;20044;-47
2022/06/28 10:32:56;;;;;;;4.45;0.68;;;;;;;23.56;41.22;100182.19;5059646;28;20051;-44
2022/06/28 10:38:20;;;;;;;4.40;0.60;;;;;;;23.29;39.99;100172.16;5067823;27;20411;-45
2022/06/28 10:40:49;;;;;;;5.50;0.80;;;;;;;23.27;40.27;100179.28;5040378;28;20056;-48
2022/06/28 10:43:55;;;;;;;3.78;0.68;;;;;;;23.16;40.65;100184.28;5045076;28;20053;-46
2022/06/28 10:51:41;;;;;;;3.47;1.63;;;;;;;23.67;41.67;100167.53;5022987;28;20413;-44
2022/06/28 10:54:10;;;;;;;3.60;1.92;;;;;;;23.86;41.04;100168.19;5010487;28;20053;-45
2022/06/28 10:56:47;;;;;;;5.03;1.45;;;;;;;24.15;40.06;100161.31;5052180;28;20045;-44
2022/06/28 10:59:16;;;;;;;3.83;1.35;;;;;;;24.54;40.55;100161.69;5017103;28;20067;-45
2022/06/28 11:15:11;;;;;;;5.65;1.05;;;;;;;25.35;37.75;100157.66;5014251;28;21083;-46
2022/06/28 11:17:41;;;;;;;2.65;0.63;;;;;;;25.34;37.53;100148.03;4997778;28;20038;-47
2022/06/28 11:20:12;;;;;;;3.05;0.52;;;;;;;25.18;37.27;100149.91;4986489;28;20050;-46
2022/06/28 11:30:30;;;;;;;2.85;1.27;;;;;;;25.27;38.67;100125.50;5025522;27;20441;-46
2022/06/28 11:32:59;;;;;;;6.75;1.88;;;;;;;25.39;37.84;100137.97;5006897;28;20041;-47
2022/06/28 11:35:28;;;;;;;8.05;2.25;;;;;;;25.25;37.17;100130.91;5005653;28;20112;-47
2022/06/28 11:38:02;;;;;;;3.97;2.15;;;;;;;25.29;37.81;100129.75;5000820;28;20042;-44
2022/06/28 11:40:38;;;;;;;1.15;0.43;;;;;;;25.27;36.68;100123.69;5001441;28;20407;-47
2022/06/28 11:43:08;;;;;;;4.53;1.48;;;;;;;25.16;36.62;100129.69;5010388;28;20096;-46
2022/06/28 11:45:41;;;;;;;3.15;1.83;;;;;;;25.04;36.93;100122.50;5009708;28;20530;-49
2022/06/28 11:50:52;;;;;;;3.47;0.50;;;;;;;25.08;36.38;100113.41;5023296;28;20396;-48
2022/06/28 11:53:20;;;;;;;1.10;0.43;;;;;;;25.19;37.00;100123.31;4981455;28;20350;-50
2022/06/28 11:55:57;;;;;;;5.82;0.93;;;;;;;25.25;36.24;100124.75;4994786;28;20129;-47
2022/06/28 11:58:26;;;;;;;4.90;0.70;;;;;;;25.30;36.61;100112.06;4978921;28;20054;-47
2022/06/28 12:01:19;;;;;;;2.40;0.60;;;;;;;25.47;37.77;100115.41;4978311;28;20057;-47
2022/06/28 12:11:40;;;;;;;6.57;1.42;;;;;;;25.56;36.30;100085.66;5053624;28;20956;-47
2022/06/28 12:14:12;;;;;;;2.65;0.60;;;;;;;25.47;36.49;100086.25;5013380;28;20056;-49
2022/06/28 12:27:17;;;;;;;6.18;1.75;;;;;;;25.61;36.16;100082.72;5048327;27;20418;-46
2022/06/28 12:29:45;;;;;;;2.70;1.70;;;;;;;25.63;36.42;100080.84;5005306;28;20050;-50
2022/06/28 12:32:12;;;;;;;4.10;1.45;;;;;;;25.61;36.42;100080.94;5011012;28;20080;-45
2022/06/28 12:35:03;;;;;;;2.25;1.55;;;;;;;25.61;35.60;100083.59;5024287;28;20073;-45
2022/06/28 12:37:30;;;;;;;5.00;0.95;;;;;;;25.47;36.15;100083.59;5031644;28;20472;-47
2022/06/28 12:39:58;;;;;;;1.98;1.33;;;;;;;25.33;36.16;100074.72;5049214;28;20053;-46
2022/06/28 12:42:27;;;;;;;4.15;1.52;;;;;;;25.12;36.21;100077.81;5013239;28;20048;-48